Time;durP1;ratioP1;P1;durP2;ratioP2;P2;SDS_P1;SDS_P2;PMS_P1;PMS_P2;Temp;Humidity;BMP_temperature;BMP_pressure;BME280_temperature;BME280_humidity;BME280_pressure;Samples;Min_cycle;Max_cycle;Signal;HPM_P1;HPM_P2
2021/12/13 00:02:48;;;;;;;44.22;17.90;;;-1.40;99.90;;;;;;4820522;29;20414;-87
2021/12/13 00:05:23;;;;;;;41.00;16.77;;;-1.40;99.90;;;;;;4805189;29;20844;-86
2021/12/13 00:08:03;;;;;;;43.00;16.90;;;-1.50;99.90;;;;;;4818516;29;20828;-86
2021/12/13 00:10:42;;;;;;;53.63;18.08;;;-1.50;99.90;;;;;;4823569;29;20477;-86
2021/12/13 00:13:19;;;;;;;41.25;18.42;;;-1.50;99.90;;;;;;4838739;29;20455;-85
2021/12/13 00:15:58;;;;;;;35.22;14.15;;;-1.60;99.90;;;;;;4823212;29;20412;-85
2021/12/13 00:18:30;;;;;;;34.70;16.10;;;-1.60;99.90;;;;;;4823284;29;20458;-86
2021/12/13 00:21:08;;;;;;;32.30;14.38;;;-1.60;99.90;;;;;;4823541;29;20411;-85
2021/12/13 00:23:53;;;;;;;35.70;15.32;;;-1.60;99.90;;;;;;4823362;29;20408;-86
2021/12/13 00:26:33;;;;;;;39.25;15.90;;;-1.60;99.90;;;;;;4823415;29;20404;-85
2021/12/13 00:29:10;;;;;;;34.63;15.75;;;-1.60;99.90;;;;;;4822613;29;20408;-86
2021/12/13 00:31:59;;;;;;;34.40;15.40;;;-1.50;99.90;;;;;;4823330;29;20410;-86
2021/12/13 00:34:38;;;;;;;41.63;18.10;;;-1.50;99.90;;;;;;4822937;29;20427;-86
2021/12/13 00:37:10;;;;;;;34.03;15.05;;;-1.40;99.90;;;;;;4823040;29;20476;-86
2021/12/13 00:40:13;;;;;;;35.55;16.05;;;-1.40;99.90;;;;;;4838337;29;20453;-86
2021/12/13 00:43:12;;;;;;;31.17;15.82;;;-1.40;99.90;;;;;;4820164;29;20430;-86
2021/12/13 00:45:53;;;;;;;30.55;15.55;;;-1.40;99.90;;;;;;4821099;29;20435;-86
2021/12/13 00:48:24;;;;;;;37.65;17.00;;;-1.40;99.90;;;;;;4824067;29;20464;-86
2021/12/13 00:51:17;;;;;;;39.40;17.25;;;-1.50;99.90;;;;;;4837909;29;20480;-86
2021/12/13 00:53:48;;;;;;;35.97;15.38;;;-1.60;99.90;;;;;;4822596;29;20420;-87
2021/12/13 00:56:46;;;;;;;43.53;18.25;;;-1.50;99.90;;;;;;4837801;29;20559;-87
2021/12/13 00:59:31;;;;;;;39.13;16.75;;;-1.50;99.90;;;;;;4823722;29;20412;-86
2021/12/13 01:01:59;;;;;;;32.80;15.18;;;-1.50;99.90;;;;;;4822990;29;20749;-86
2021/12/13 01:04:48;;;;;;;35.47;16.13;;;-1.60;99.90;;;;;;4822602;29;20432;-87
2021/12/13 01:07:43;;;;;;;32.28;14.73;;;-1.60;99.90;;;;;;4807380;29;20436;-86
2021/12/13 01:10:30;;;;;;;39.78;14.70;;;-1.60;99.90;;;;;;4837467;29;20411;-86
2021/12/13 01:12:59;;;;;;;34.40;14.70;;;-1.80;99.90;;;;;;4837605;29;20448;-86
2021/12/13 01:15:39;;;;;;;34.90;15.38;;;-1.80;99.90;;;;;;4822459;29;20499;-86
2021/12/13 01:18:29;;;;;;;34.92;15.40;;;-1.80;99.90;;;;;;4807347;29;20416;-86
2021/12/13 01:23:49;;;;;;;35.55;15.88;;;-1.80;99.90;;;;;;4804047;29;20881;-86
2021/12/13 01:26:36;;;;;;;39.92;17.48;;;-1.70;99.90;;;;;;4804138;29;20455;-86
2021/12/13 01:29:10;;;;;;;37.13;16.77;;;-1.70;99.90;;;;;;4804116;29;20508;-86
2021/12/13 01:31:42;;;;;;;39.80;16.85;;;-1.60;99.90;;;;;;4804022;29;20449;-86
2021/12/13 01:34:10;;;;;;;44.97;18.87;;;-1.70;99.90;;;;;;4804869;29;20429;-86
2021/12/13 01:36:54;;;;;;;37.47;15.55;;;-1.70;99.90;;;;;;4819098;29;20413;-86
2021/12/13 01:39:27;;;;;;;42.35;17.20;;;-1.70;99.90;;;;;;4803991;29;20405;-86
2021/12/13 01:41:59;;;;;;;41.22;17.27;;;-1.70;99.90;;;;;;4805105;29;20506;-86
2021/12/13 01:44:33;;;;;;;37.92;16.50;;;-1.70;99.90;;;;;;4804785;29;20428;-86
2021/12/13 01:47:10;;;;;;;42.13;17.40;;;-1.70;99.90;;;;;;4803670;29;20428;-86
2021/12/13 01:49:46;;;;;;;41.53;17.30;;;-1.70;99.90;;;;;;4805130;29;20531;-86
2021/12/13 01:52:24;;;;;;;37.03;15.93;;;-1.70;99.90;;;;;;4818668;29;20988;-86
2021/12/13 01:54:54;;;;;;;34.08;15.77;;;-1.70;99.90;;;;;;4818597;29;20482;-86
2021/12/13 01:57:38;;;;;;;41.17;17.43;;;-1.80;99.90;;;;;;4818796;29;20425;-87
2021/12/13 02:01:08;;;;;;;33.13;14.93;;;-1.80;99.90;;;;;;4833494;29;20453;-85
2021/12/13 02:03:22;;;;;;;35.90;15.93;;;-1.90;99.90;;;;;;4804505;29;20418;-85
2021/12/13 02:05:50;;;;;;;31.03;14.33;;;-1.90;99.90;;;;;;4818856;29;20425;-86
2021/12/13 02:08:24;;;;;;;34.42;15.27;;;-1.90;99.90;;;;;;4833965;29;20922;-86
2021/12/13 02:10:55;;;;;;;32.50;14.63;;;-1.90;99.90;;;;;;4833741;29;20521;-86
2021/12/13 02:13:33;;;;;;;35.33;15.75;;;-1.90;99.90;;;;;;4818356;29;20513;-86
2021/12/13 02:18:53;;;;;;;34.88;14.88;;;-1.90;99.90;;;;;;4803351;29;20426;-85
2021/12/13 02:21:34;;;;;;;32.88;14.55;;;-1.90;99.90;;;;;;4804409;29;20409;-86
2021/12/13 02:24:11;;;;;;;41.92;18.58;;;-1.90;99.90;;;;;;4833841;29;20414;-86
2021/12/13 02:26:43;;;;;;;42.60;18.45;;;-1.80;99.90;;;;;;4818737;29;20432;-86
2021/12/13 02:29:21;;;;;;;34.40;15.45;;;-1.80;99.90;;;;;;4818283;29;20425;-86
2021/12/13 02:31:49;;;;;;;38.35;16.58;;;-1.80;99.90;;;;;;4803254;29;20410;-86
2021/12/13 02:34:18;;;;;;;38.95;18.90;;;-1.80;99.90;;;;;;4803352;29;20501;-86
2021/12/13 02:36:52;;;;;;;34.93;16.27;;;-1.70;99.90;;;;;;4818351;29;20413;-86
2021/12/13 02:39:31;;;;;;;35.92;16.63;;;-1.60;99.90;;;;;;4803338;29;20414;-86
2021/12/13 02:42:03;;;;;;;36.67;15.30;;;-1.60;99.90;;;;;;4833190;29;20420;-86
2021/12/13 02:44:41;;;;;;;45.05;16.45;;;-1.70;99.90;;;;;;4804543;29;20439;-86
2021/12/13 02:47:22;;;;;;;34.47;16.00;;;-1.90;99.90;;;;;;4803306;29;20413;-86
2021/12/13 02:49:50;;;;;;;37.97;16.07;;;-1.90;99.90;;;;;;4804229;29;20422;-86
2021/12/13 02:52:20;;;;;;;33.97;16.60;;;-1.90;99.90;;;;;;4806341;29;20446;-85
2021/12/13 02:54:57;;;;;;;36.50;15.50;;;-1.80;99.90;;;;;;4806405;29;20425;-86
2021/12/13 02:57:30;;;;;;;33.40;14.93;;;-1.80;99.90;;;;;;4821313;29;20432;-86
2021/12/13 03:00:13;;;;;;;29.33;14.02;;;-1.90;99.90;;;;;;4836629;29;20448;-86
2021/12/13 03:02:44;;;;;;;33.27;15.97;;;-1.90;99.90;;;;;;4836408;29;20414;-86
2021/12/13 03:05:19;;;;;;;32.22;14.50;;;-1.80;99.90;;;;;;4806438;29;20445;-86
2021/12/13 03:07:50;;;;;;;35.28;15.35;;;-1.90;99.90;;;;;;4821179;29;20478;-86
2021/12/13 03:10:24;;;;;;;41.25;16.67;;;-1.90;99.90;;;;;;4836736;29;20506;-87
2021/12/13 03:12:52;;;;;;;36.95;16.70;;;-1.90;99.90;;;;;;4806228;29;20418;-87
2021/12/13 03:15:24;;;;;;;35.07;14.83;;;-1.90;99.90;;;;;;4836278;29;20687;-86
2021/12/13 03:18:15;;;;;;;33.25;15.32;;;-1.90;99.90;;;;;;4821124;29;20414;-87
2021/12/13 03:21:01;;;;;;;34.40;15.15;;;-1.90;99.90;;;;;;4806399;29;20897;-86
2021/12/13 03:23:55;;;;;;;30.75;14.48;;;-1.90;99.90;;;;;;4806060;29;20946;-86
2021/12/13 03:27:06;;;;;;;34.67;15.25;;;-1.90;99.90;;;;;;4806051;29;20826;-86
2021/12/13 03:29:34;;;;;;;30.95;15.02;;;-1.90;99.90;;;;;;4805995;29;20833;-86
2021/12/13 03:32:03;;;;;;;32.72;13.93;;;-1.80;99.90;;;;;;4791227;29;20430;-87
2021/12/13 03:34:38;;;;;;;33.42;14.75;;;-1.90;99.90;;;;;;4820787;29;20437;-86
2021/12/13 03:37:21;;;;;;;31.13;15.93;;;-1.90;99.90;;;;;;4806125;29;20420;-86
2021/12/13 03:40:00;;;;;;;26.08;12.07;;;-1.90;99.90;;;;;;4805543;29;20410;-86
2021/12/13 03:42:41;;;;;;;32.55;13.85;;;-1.80;99.90;;;;;;4820770;29;20413;-86
2021/12/13 03:45:33;;;;;;;28.83;12.57;;;-1.90;99.90;;;;;;4820828;29;20426;-87
2021/12/13 03:48:02;;;;;;;31.27;13.95;;;-1.90;99.90;;;;;;4836028;29;20452;-86
2021/12/13 03:50:35;;;;;;;30.70;13.63;;;-2.00;99.90;;;;;;4806961;29;20410;-87
2021/12/13 03:53:08;;;;;;;39.15;12.98;;;-2.00;99.90;;;;;;4820724;29;20417;-87
2021/12/13 03:55:39;;;;;;;35.20;15.50;;;-2.10;99.90;;;;;;4806744;29;20421;-86
2021/12/13 03:58:11;;;;;;;29.15;12.98;;;-2.10;99.90;;;;;;4819840;29;20456;-86
2021/12/13 04:00:46;;;;;;;31.60;12.93;;;-2.10;99.90;;;;;;4818881;29;20422;-86
2021/12/13 04:03:17;;;;;;;38.27;16.80;;;-2.10;99.90;;;;;;4789458;29;20977;-86
2021/12/13 04:05:48;;;;;;;26.25;12.18;;;-2.00;99.90;;;;;;4805521;29;20414;-86
2021/12/13 04:08:17;;;;;;;29.02;13.38;;;-2.10;99.90;;;;;;4805671;29;20497;-86
2021/12/13 04:11:07;;;;;;;31.45;13.52;;;-2.10;99.90;;;;;;4805404;29;20413;-87
2021/12/13 04:13:42;;;;;;;30.02;13.05;;;-2.10;99.90;;;;;;4805092;29;20422;-86
2021/12/13 04:16:29;;;;;;;28.35;12.52;;;-2.10;99.90;;;;;;4790429;29;20451;-85
2021/12/13 04:19:11;;;;;;;30.27;13.00;;;-2.10;99.90;;;;;;4790110;29;20497;-86
2021/12/13 04:21:56;;;;;;;34.80;14.90;;;-2.20;99.90;;;;;;4805179;29;20410;-86
2021/12/13 04:24:37;;;;;;;38.67;13.32;;;-2.20;99.90;;;;;;4804993;29;20738;-86
2021/12/13 04:27:10;;;;;;;28.90;12.38;;;-2.20;99.90;;;;;;4820048;29;20433;-85
2021/12/13 04:29:40;;;;;;;32.08;12.50;;;-2.20;99.90;;;;;;4805164;29;20421;-85
2021/12/13 04:32:24;;;;;;;34.28;14.52;;;-2.20;99.90;;;;;;4805020;29;20416;-85
2021/12/13 04:34:57;;;;;;;28.90;13.07;;;-2.20;99.90;;;;;;4805040;29;20428;-86
2021/12/13 04:37:28;;;;;;;27.90;12.25;;;-2.20;99.90;;;;;;4805178;29;20410;-86
2021/12/13 04:39:59;;;;;;;30.50;13.20;;;-2.20;99.90;;;;;;4819903;29;20475;-85
2021/12/13 04:42:29;;;;;;;43.17;12.63;;;-2.10;99.90;;;;;;4804842;29;20414;-85
2021/12/13 04:45:14;;;;;;;33.92;13.48;;;-2.20;99.90;;;;;;4804845;29;20413;-85
2021/12/13 04:48:02;;;;;;;32.05;14.20;;;-2.20;99.90;;;;;;4804927;29;20907;-85
2021/12/13 04:50:39;;;;;;;31.02;11.85;;;-2.20;99.90;;;;;;4804593;29;20921;-86
2021/12/13 04:53:23;;;;;;;38.25;13.13;;;-2.30;99.90;;;;;;4805770;29;20418;-84
2021/12/13 04:55:53;;;;;;;31.48;11.63;;;-2.30;99.90;;;;;;4819391;29;20428;-85
2021/12/13 04:58:21;;;;;;;29.63;11.18;;;-2.30;99.90;;;;;;4804289;29;20429;-85
2021/12/13 05:00:53;;;;;;;36.17;13.20;;;-2.30;99.90;;;;;;4819552;29;20418;-85
2021/12/13 05:03:26;;;;;;;35.05;12.38;;;-2.30;99.90;;;;;;4804529;29;20494;-86
2021/12/13 05:05:54;;;;;;;28.90;12.40;;;-2.30;99.90;;;;;;4804397;29;20450;-85
2021/12/13 05:08:22;;;;;;;33.72;13.15;;;-2.30;99.90;;;;;;4804344;29;20413;-86
2021/12/13 05:10:50;;;;;;;31.42;13.77;;;-2.30;99.90;;;;;;4804414;29;20421;-85
2021/12/13 05:13:25;;;;;;;30.23;12.00;;;-2.30;99.90;;;;;;4789143;29;20424;-86
2021/12/13 05:15:58;;;;;;;34.38;14.57;;;-2.30;99.90;;;;;;4788932;29;20513;-86
2021/12/13 05:18:32;;;;;;;26.83;11.98;;;-2.20;99.90;;;;;;4805568;29;20840;-85
2021/12/13 05:21:12;;;;;;;37.00;15.75;;;-2.30;99.90;;;;;;4821890;29;20408;-86
2021/12/13 05:23:52;;;;;;;29.35;13.45;;;-2.10;99.90;;;;;;4821068;29;20416;-86
2021/12/13 05:27:14;;;;;;;32.22;12.55;;;-2.20;99.90;;;;;;4822316;29;20424;-85
2021/12/13 05:29:49;;;;;;;29.50;12.07;;;-2.30;99.90;;;;;;4814958;29;20432;-86
2021/12/13 05:32:30;;;;;;;33.00;11.90;;;-2.20;99.90;;;;;;4819799;29;20428;-86
2021/12/13 05:35:08;;;;;;;27.30;12.68;;;-2.30;99.90;;;;;;4836822;29;20514;-86
2021/12/13 05:37:47;;;;;;;29.05;13.55;;;-2.30;99.90;;;;;;4822236;29;20408;-86
2021/12/13 05:40:46;;;;;;;29.60;13.13;;;-2.30;99.90;;;;;;4822099;29;20431;-86
2021/12/13 05:43:26;;;;;;;36.15;15.38;;;-2.10;99.90;;;;;;4819818;29;20442;-86
2021/12/13 05:45:58;;;;;;;34.22;15.25;;;-2.00;99.90;;;;;;4821976;29;20915;-86
2021/12/13 05:48:35;;;;;;;39.72;17.33;;;-2.00;99.90;;;;;;4806999;29;20436;-87
2021/12/13 05:51:19;;;;;;;27.00;11.75;;;-1.90;99.90;;;;;;4821610;29;20436;-87
2021/12/13 05:53:52;;;;;;;36.13;12.50;;;-2.00;99.90;;;;;;4822443;29;20424;-86
2021/12/13 05:56:20;;;;;;;43.83;16.73;;;-2.10;99.90;;;;;;4814244;29;20431;-86
2021/12/13 05:58:50;;;;;;;30.17;13.13;;;-2.10;99.90;;;;;;4821239;29;20412;-87
2021/12/13 06:01:26;;;;;;;28.50;11.83;;;-2.10;99.90;;;;;;4805667;29;20424;-86
2021/12/13 06:04:08;;;;;;;34.17;14.27;;;-2.10;99.90;;;;;;4836647;29;20884;-86
2021/12/13 06:06:47;;;;;;;35.05;15.18;;;-2.00;99.90;;;;;;4822767;29;20418;-86
2021/12/13 06:09:40;;;;;;;35.75;14.70;;;-2.00;99.90;;;;;;4805076;29;20949;-86
2021/12/13 06:12:15;;;;;;;39.25;15.02;;;-2.00;99.90;;;;;;4816707;29;20439;-86
2021/12/13 06:14:43;;;;;;;33.95;12.40;;;-2.20;99.90;;;;;;4820082;29;20502;-86
2021/12/13 06:17:20;;;;;;;32.78;14.15;;;-2.30;99.90;;;;;;4818400;29;20418;-86
2021/12/13 06:19:59;;;;;;;34.28;15.18;;;-2.30;99.90;;;;;;4818647;29;20780;-87
2021/12/13 06:22:29;;;;;;;37.67;12.68;;;-2.30;99.90;;;;;;4803556;29;20778;-86
2021/12/13 06:25:22;;;;;;;36.65;11.18;;;-2.50;99.90;;;;;;4803353;29;20925;-86
2021/12/13 06:27:53;;;;;;;28.58;11.30;;;-2.60;99.90;;;;;;4822055;29;20413;-86
2021/12/13 06:30:31;;;;;;;25.08;10.50;;;-2.60;99.90;;;;;;4808041;29;20646;-86
2021/12/13 06:33:07;;;;;;;27.53;9.97;;;-2.60;99.90;;;;;;4806976;29;20520;-86
2021/12/13 06:35:43;;;;;;;33.03;14.05;;;-2.70;99.90;;;;;;4821883;29;20933;-86
2021/12/13 06:38:22;;;;;;;33.43;10.07;;;-2.40;99.90;;;;;;4821904;29;20405;-87
2021/12/13 06:41:00;;;;;;;33.90;14.48;;;-2.50;99.90;;;;;;4821617;29;20412;-86
2021/12/13 06:43:56;;;;;;;34.33;13.52;;;-2.40;99.90;;;;;;4809575;29;20477;-86
2021/12/13 06:46:23;;;;;;;34.42;14.15;;;-2.50;99.90;;;;;;4815344;29;20423;-85
2021/12/13 06:49:00;;;;;;;27.95;11.68;;;-2.30;99.90;;;;;;4809597;29;20535;-85
2021/12/13 06:51:49;;;;;;;35.58;13.90;;;-2.50;99.90;;;;;;4824828;29;20414;-87
2021/12/13 06:54:42;;;;;;;32.10;14.05;;;-2.30;99.90;;;;;;4824106;29;20416;-89
2021/12/13 06:57:20;;;;;;;32.85;14.18;;;-2.30;99.90;;;;;;4833291;29;20959;-86
2021/12/13 06:59:56;;;;;;;28.20;11.70;;;-2.40;99.90;;;;;;4828844;29;20518;-85
2021/12/13 07:02:25;;;;;;;30.75;13.95;;;-2.40;99.90;;;;;;4824388;29;20701;-86
2021/12/13 07:05:06;;;;;;;25.25;11.80;;;-2.40;99.90;;;;;;4824257;29;20416;-86
2021/12/13 07:08:08;;;;;;;40.85;17.63;;;-2.40;99.90;;;;;;4835776;29;20452;-86
2021/12/13 07:10:43;;;;;;;35.22;15.60;;;-2.30;99.90;;;;;;4817738;29;20415;-86
2021/12/13 07:13:33;;;;;;;28.88;11.57;;;-2.20;99.90;;;;;;4805167;29;20430;-86
2021/12/13 07:16:11;;;;;;;25.52;11.45;;;-2.40;99.90;;;;;;4823519;29;20428;-85
2021/12/13 07:18:50;;;;;;;39.08;15.77;;;-2.50;99.90;;;;;;4813110;29;20416;-85
2021/12/13 07:21:27;;;;;;;34.25;14.82;;;-2.40;99.90;;;;;;4839467;29;20489;-86
2021/12/13 07:24:05;;;;;;;28.93;12.37;;;-2.30;99.90;;;;;;4839233;29;20468;-86
2021/12/13 07:26:56;;;;;;;33.10;14.48;;;-2.40;99.90;;;;;;4839186;29;20419;-85
2021/12/13 07:29:29;;;;;;;37.38;16.58;;;-2.40;99.90;;;;;;4823913;29;20829;-85
2021/12/13 07:32:31;;;;;;;30.33;13.15;;;-2.40;99.90;;;;;;4831063;29;20479;-85
2021/12/13 07:35:09;;;;;;;54.37;17.37;;;-2.30;99.90;;;;;;4818830;29;20425;-84
2021/12/13 07:37:50;;;;;;;38.30;15.85;;;-2.50;99.90;;;;;;4804932;29;20417;-85
2021/12/13 07:40:34;;;;;;;44.42;17.13;;;-2.60;99.90;;;;;;4816549;29;20461;-85
2021/12/13 07:43:15;;;;;;;40.15;17.33;;;-2.60;99.90;;;;;;4808316;29;20883;-85
2021/12/13 07:45:45;;;;;;;35.25;16.08;;;-2.60;99.90;;;;;;4822190;29;20477;-85
2021/12/13 07:48:44;;;;;;;33.40;16.70;;;-2.60;99.90;;;;;;4822820;29;20504;-85
2021/12/13 07:51:15;;;;;;;42.33;19.23;;;-2.60;99.90;;;;;;4817147;29;20472;-85
2021/12/13 07:53:57;;;;;;;38.72;17.17;;;-2.60;99.90;;;;;;4823930;29;20416;-84
2021/12/13 07:56:28;;;;;;;38.90;18.23;;;-2.70;99.90;;;;;;4823595;29;20507;-85
2021/12/13 07:59:04;;;;;;;40.45;17.13;;;-2.60;99.90;;;;;;4823572;29;20412;-85
2021/12/13 08:01:40;;;;;;;39.13;12.97;;;-2.60;99.90;;;;;;4823469;29;20424;-85
2021/12/13 08:04:15;;;;;;;40.00;10.97;;;-2.80;99.90;;;;;;4823359;29;20396;-85
2021/12/13 08:06:57;;;;;;;38.20;11.27;;;-2.90;99.90;;;;;;4815830;29;20417;-85
2021/12/13 08:09:29;;;;;;;39.47;10.27;;;-2.90;99.90;;;;;;4838384;29;20469;-85
2021/12/13 08:11:58;;;;;;;31.75;11.57;;;-2.90;99.90;;;;;;4838273;29;20436;-85
2021/12/13 08:14:34;;;;;;;33.75;13.68;;;-3.00;99.90;;;;;;4838043;29;20418;-85
2021/12/13 08:17:22;;;;;;;27.60;11.73;;;-2.80;99.90;;;;;;4838225;29;20396;-85
2021/12/13 08:20:01;;;;;;;27.90;10.32;;;-2.70;99.90;;;;;;4838236;29;20411;-85
2021/12/13 08:22:30;;;;;;;26.70;10.32;;;-2.70;99.90;;;;;;4823066;29;20495;-85
2021/12/13 08:25:06;;;;;;;31.13;12.98;;;-2.90;99.90;;;;;;4832916;29;20426;-85
2021/12/13 08:27:41;;;;;;;39.08;15.52;;;-2.90;99.90;;;;;;4821163;29;20975;-85
2021/12/13 08:30:14;;;;;;;33.97;11.40;;;-2.70;99.90;;;;;;4822962;29;20412;-85
2021/12/13 08:33:04;;;;;;;29.70;11.90;;;-2.90;99.90;;;;;;4808123;29;20508;-85
2021/12/13 08:36:04;;;;;;;29.30;11.63;;;-2.90;99.90;;;;;;4822729;29;20420;-86
2021/12/13 08:38:37;;;;;;;33.50;12.77;;;-2.80;99.90;;;;;;4822955;29;20440;-86
2021/12/13 08:41:32;;;;;;;32.70;12.37;;;-2.80;99.90;;;;;;4822636;29;20818;-86
2021/12/13 08:44:18;;;;;;;28.50;11.05;;;-2.80;99.90;;;;;;4808098;29;20415;-85
2021/12/13 08:47:17;;;;;;;29.00;9.47;;;-2.90;99.90;;;;;;4822798;29;20424;-87
2021/12/13 08:49:51;;;;;;;29.33;12.15;;;-2.90;99.90;;;;;;4821942;29;20891;-87
2021/12/13 08:52:32;;;;;;;25.52;10.77;;;-2.90;99.90;;;;;;4823403;29;20509;-85
2021/12/13 08:55:13;;;;;;;20.67;8.98;;;-2.80;99.90;;;;;;4833335;29;20848;-84
2021/12/13 08:57:49;;;;;;;27.00;11.38;;;-2.90;99.90;;;;;;4822778;29;20465;-83
2021/12/13 09:00:24;;;;;;;30.70;11.67;;;-2.80;99.90;;;;;;4804243;29;20410;-84
2021/12/13 09:03:02;;;;;;;35.65;11.48;;;-2.80;99.90;;;;;;4822178;29;20423;-85
2021/12/13 09:05:34;;;;;;;40.22;11.63;;;-2.90;99.90;;;;;;4806292;29;20818;-86
2021/12/13 09:08:14;;;;;;;29.35;10.52;;;-3.00;99.90;;;;;;4837746;29;20919;-86
2021/12/13 09:10:49;;;;;;;41.83;12.02;;;-3.00;99.90;;;;;;4822400;29;20408;-88
2021/12/13 09:13:32;;;;;;;40.67;11.53;;;-3.00;99.90;;;;;;4823653;29;20499;-85
2021/12/13 09:16:00;;;;;;;28.67;12.13;;;-3.00;99.90;;;;;;4822431;29;20911;-85
2021/12/13 09:18:27;;;;;;;30.85;10.68;;;-3.00;99.90;;;;;;4820031;29;20424;-85
2021/12/13 09:20:59;;;;;;;31.83;12.10;;;-3.00;99.90;;;;;;4821010;29;20564;-86
2021/12/13 09:23:41;;;;;;;30.47;10.70;;;-3.00;99.90;;;;;;4827615;29;20511;-85
2021/12/13 09:26:27;;;;;;;31.25;11.55;;;-3.10;99.90;;;;;;4818023;29;20416;-86
2021/12/13 09:29:04;;;;;;;30.05;10.23;;;-3.10;99.90;;;;;;4817975;29;20416;-86
2021/12/13 09:31:39;;;;;;;31.58;9.35;;;-3.10;99.90;;;;;;4831744;29;20424;-85
2021/12/13 09:34:13;;;;;;;48.35;12.18;;;-3.10;99.90;;;;;;4804680;29;20500;-83
2021/12/13 09:36:43;;;;;;;24.33;10.55;;;-3.10;99.90;;;;;;4813742;29;20422;-85
2021/12/13 09:39:32;;;;;;;33.60;11.13;;;-3.10;99.90;;;;;;4818391;29;20922;-85
2021/12/13 09:42:06;;;;;;;32.65;13.00;;;-3.10;99.90;;;;;;4816180;29;20512;-87
2021/12/13 09:45:08;;;;;;;35.35;11.85;;;-3.00;99.90;;;;;;4824265;29;20435;-85
2021/12/13 09:47:39;;;;;;;26.23;11.48;;;-3.10;99.90;;;;;;4808031;29;20518;-85
2021/12/13 09:50:15;;;;;;;30.83;11.82;;;-3.00;99.90;;;;;;4810140;29;20501;-85
2021/12/13 09:52:54;;;;;;;42.22;11.40;;;-3.00;99.90;;;;;;4815996;29;20484;-86
2021/12/13 09:55:31;;;;;;;28.50;10.88;;;-3.00;99.90;;;;;;4821819;29;20432;-85
2021/12/13 09:58:10;;;;;;;23.75;10.57;;;-3.00;99.90;;;;;;4821334;29;20460;-87
2021/12/13 10:00:43;;;;;;;25.00;10.43;;;-3.00;99.90;;;;;;4821402;29;20419;-86
2021/12/13 10:03:21;;;;;;;27.30;10.73;;;-3.00;99.90;;;;;;4791914;29;20452;-85
2021/12/13 10:05:56;;;;;;;22.05;10.02;;;-3.00;99.90;;;;;;4801294;29;20473;-85
2021/12/13 10:08:37;;;;;;;25.33;10.87;;;-2.90;99.90;;;;;;4821730;29;20979;-86
2021/12/13 10:11:10;;;;;;;25.20;11.07;;;-2.90;99.90;;;;;;4822094;29;20493;-86
2021/12/13 10:13:39;;;;;;;31.10;11.63;;;-2.90;99.90;;;;;;4821824;29;20808;-86
2021/12/13 10:16:10;;;;;;;50.90;11.70;;;-2.90;99.90;;;;;;4821654;29;20504;-86
2021/12/13 10:18:42;;;;;;;32.67;11.15;;;-2.90;99.90;;;;;;4836659;29;20420;-86
2021/12/13 10:21:21;;;;;;;26.40;11.87;;;-2.90;99.90;;;;;;4822058;29;20410;-86
2021/12/13 10:23:59;;;;;;;38.17;13.40;;;-2.90;99.90;;;;;;4805657;29;21047;-86
2021/12/13 10:26:31;;;;;;;35.88;14.90;;;-2.90;99.90;;;;;;4835758;29;20420;-85
2021/12/13 10:29:02;;;;;;;31.77;12.13;;;-2.90;99.90;;;;;;4835431;29;20411;-87
2021/12/13 10:31:36;;;;;;;35.35;12.15;;;-2.90;99.90;;;;;;4819993;29;20860;-86
2021/12/13 10:34:08;;;;;;;25.03;10.37;;;-2.90;99.90;;;;;;4821706;29;20529;-87
2021/12/13 10:36:39;;;;;;;30.17;12.20;;;-2.90;99.90;;;;;;4835500;29;20420;-86
2021/12/13 10:39:15;;;;;;;27.92;10.95;;;-2.80;99.90;;;;;;4821480;29;20451;-86
2021/12/13 10:42:06;;;;;;;26.40;10.88;;;-2.80;99.90;;;;;;4803212;29;20445;-87
2021/12/13 10:44:35;;;;;;;28.08;9.25;;;-2.80;99.90;;;;;;4803539;29;20422;-87
2021/12/13 10:47:09;;;;;;;23.60;9.05;;;-2.80;99.90;;;;;;4788454;29;20434;-86
2021/12/13 10:49:42;;;;;;;24.83;8.90;;;-2.90;99.90;;;;;;4807594;29;20428;-87
2021/12/13 10:52:20;;;;;;;25.08;8.65;;;-3.00;99.90;;;;;;4806830;29;21159;-86
2021/12/13 10:54:52;;;;;;;19.83;8.57;;;-2.90;99.90;;;;;;4803779;29;20790;-87
2021/12/13 10:57:25;;;;;;;17.43;7.33;;;-2.90;99.90;;;;;;4821575;29;20446;-87
2021/12/13 10:59:55;;;;;;;31.70;7.82;;;-2.90;99.90;;;;;;4803403;29;20414;-86
2021/12/13 11:02:27;;;;;;;17.23;7.40;;;-3.00;99.90;;;;;;4806162;29;20520;-86
2021/12/13 11:05:04;;;;;;;15.70;7.43;;;-2.90;99.90;;;;;;4805667;29;20420;-87
2021/12/13 11:07:33;;;;;;;18.17;6.60;;;-2.90;99.90;;;;;;4836368;29;20911;-87
2021/12/13 11:10:05;;;;;;;16.23;7.50;;;-2.90;99.90;;;;;;4836578;29;20922;-88
2021/12/13 11:12:39;;;;;;;23.08;8.40;;;-2.90;99.90;;;;;;4838930;29;20431;-85
2021/12/13 11:15:21;;;;;;;19.00;7.28;;;-2.80;99.90;;;;;;4824367;29;20907;-87
2021/12/13 11:17:49;;;;;;;27.42;7.53;;;-2.90;99.90;;;;;;4826597;29;20413;-87
2021/12/13 11:20:26;;;;;;;16.67;7.20;;;-2.90;99.90;;;;;;4811829;29;20449;-87
2021/12/13 11:22:54;;;;;;;20.83;6.97;;;-3.00;99.90;;;;;;4830734;29;20923;-87
2021/12/13 11:25:39;;;;;;;20.80;7.13;;;-3.00;99.90;;;;;;4839633;29;20904;-88
2021/12/13 11:28:09;;;;;;;19.17;7.50;;;-3.00;99.90;;;;;;4824475;29;20962;-87
2021/12/13 11:30:45;;;;;;;20.02;8.55;;;-2.90;99.90;;;;;;4809871;29;20416;-88
2021/12/13 11:33:38;;;;;;;17.87;7.93;;;-2.90;99.90;;;;;;4819561;29;20413;-86
2021/12/13 11:36:43;;;;;;;17.10;6.85;;;-2.80;99.90;;;;;;4820172;29;20478;-85
2021/12/13 11:39:35;;;;;;;16.70;6.40;;;-2.80;99.90;;;;;;4823273;29;20444;-87
2021/12/13 11:42:40;;;;;;;14.23;6.63;;;-2.80;99.90;;;;;;4807663;29;20420;-85
2021/12/13 11:45:47;;;;;;;13.98;6.13;;;-2.90;99.90;;;;;;4825187;29;20404;-85
2021/12/13 11:48:42;;;;;;;20.70;7.75;;;-2.90;99.90;;;;;;4822475;29;20432;-86
2021/12/13 11:51:29;;;;;;;22.75;8.70;;;-2.90;99.90;;;;;;4824080;29;20408;-85
2021/12/13 11:54:15;;;;;;;22.30;9.52;;;-2.90;99.90;;;;;;4823726;29;20439;-86
2021/12/13 11:57:20;;;;;;;16.93;7.93;;;-2.80;99.90;;;;;;4809060;29;20451;-86
2021/12/13 12:00:15;;;;;;;13.77;6.75;;;-2.70;99.90;;;;;;4823416;29;20484;-86
2021/12/13 12:03:16;;;;;;;15.73;7.40;;;-2.60;99.90;;;;;;4808861;29;20892;-87
2021/12/13 12:06:09;;;;;;;26.60;10.93;;;-2.70;99.90;;;;;;4838716;29;20404;-86
2021/12/13 12:09:12;;;;;;;29.33;13.20;;;-2.70;99.90;;;;;;4838656;29;20457;-86
2021/12/13 12:11:57;;;;;;;25.73;10.63;;;-2.70;99.90;;;;;;4809201;29;21027;-88
2021/12/13 12:14:28;;;;;;;28.95;10.52;;;-2.80;99.90;;;;;;4823575;29;20412;-88
2021/12/13 12:16:59;;;;;;;19.25;8.07;;;-2.80;99.90;;;;;;4838709;29;20519;-86
2021/12/13 12:19:33;;;;;;;18.90;7.85;;;-2.80;99.90;;;;;;4838662;29;20592;-88
2021/12/13 12:22:17;;;;;;;24.30;10.43;;;-2.80;99.90;;;;;;4838456;29;20931;-86
2021/12/13 12:24:57;;;;;;;23.17;10.07;;;-2.70;99.90;;;;;;4837632;29;20443;-86
2021/12/13 12:27:30;;;;;;;24.93;10.83;;;-2.70;99.90;;;;;;4824517;29;20436;-88
2021/12/13 12:30:12;;;;;;;25.05;8.57;;;-2.60;99.90;;;;;;4823303;29;20428;-88
2021/12/13 12:32:43;;;;;;;24.30;10.70;;;-2.70;99.90;;;;;;4824457;29;20412;-85
2021/12/13 12:35:15;;;;;;;20.37;9.60;;;-2.70;99.90;;;;;;4821413;29;20423;-86
2021/12/13 12:37:59;;;;;;;17.80;7.70;;;-2.70;99.90;;;;;;4821195;29;20427;-86
2021/12/13 12:40:57;;;;;;;21.98;8.95;;;-2.70;99.90;;;;;;4796753;29;20413;-87
2021/12/13 12:43:28;;;;;;;22.10;9.37;;;-2.80;99.90;;;;;;4804985;29;20421;-87
2021/12/13 12:46:00;;;;;;;17.50;8.57;;;-2.80;99.90;;;;;;4813357;29;20518;-87
2021/12/13 12:48:38;;;;;;;26.77;9.75;;;-2.80;99.90;;;;;;4792392;29;20406;-88
2021/12/13 12:51:19;;;;;;;19.55;8.38;;;-2.80;99.90;;;;;;4838128;29;20408;-86
2021/12/13 12:53:58;;;;;;;19.40;9.63;;;-2.80;99.90;;;;;;4822783;29;20904;-87
2021/12/13 12:56:38;;;;;;;23.58;10.13;;;-2.80;99.90;;;;;;4837667;29;20427;-87
2021/12/13 12:59:21;;;;;;;25.58;11.32;;;-2.70;99.90;;;;;;4835954;29;20428;-87
2021/12/13 13:01:56;;;;;;;17.55;8.25;;;-2.70;99.90;;;;;;4801004;29;20895;-87
2021/12/13 13:04:29;;;;;;;21.25;9.15;;;-2.70;99.90;;;;;;4822855;29;20428;-86
2021/12/13 13:07:05;;;;;;;19.98;8.85;;;-2.80;99.90;;;;;;4819664;29;20920;-87
2021/12/13 13:09:45;;;;;;;25.37;10.87;;;-2.80;99.90;;;;;;4805839;29;20432;-86
2021/12/13 13:12:19;;;;;;;22.15;9.75;;;-2.70;99.90;;;;;;4829874;29;20422;-87
2021/12/13 13:14:53;;;;;;;27.45;9.55;;;-2.80;99.90;;;;;;4822309;29;20408;-86
2021/12/13 13:17:25;;;;;;;26.50;11.57;;;-2.80;99.90;;;;;;4815977;29;20453;-87
2021/12/13 13:20:01;;;;;;;39.50;13.30;;;-2.70;99.90;;;;;;4836458;29;20399;-87
2021/12/13 13:22:35;;;;;;;28.95;12.77;;;-2.80;99.90;;;;;;4818721;29;20424;-86
2021/12/13 13:25:29;;;;;;;29.30;13.70;;;-2.80;99.90;;;;;;4805353;29;20818;-87
2021/12/13 13:27:59;;;;;;;24.58;11.50;;;-2.80;99.90;;;;;;4822487;29;20908;-87
2021/12/13 13:30:38;;;;;;;29.15;11.70;;;-2.80;99.90;;;;;;4822677;29;20472;-87
2021/12/13 13:33:07;;;;;;;36.33;11.52;;;-2.90;99.90;;;;;;4822030;29;20930;-87